sensor_id;sensor_type;location;lat;lon;timestamp;pressure;altitude;pressure_sealevel;temperature;humidity
9439;BME280;5176;42.622;25.386;2023-07-09T00:02:12;97394.78;;;20.92;86.42
9439;BME280;5176;42.622;25.386;2023-07-09T00:04:39;97396.94;;;20.88;87.15
9439;BME280;5176;42.622;25.386;2023-07-09T00:07:15;97400.59;;;20.87;88.23
9439;BME280;5176;42.622;25.386;2023-07-09T00:09:44;97400.06;;;20.84;89.38
9439;BME280;5176;42.622;25.386;2023-07-09T00:12:13;97405.72;;;20.81;90.31
9439;BME280;5176;42.622;25.386;2023-07-09T00:14:41;97414.56;;;20.81;89.95
9439;BME280;5176;42.622;25.386;2023-07-09T00:17:10;97401.03;;;20.75;91.36
9439;BME280;5176;42.622;25.386;2023-07-09T00:19:38;97404.16;;;20.70;92.82
9439;BME280;5176;42.622;25.386;2023-07-09T00:22:14;97408.81;;;20.68;92.82
9439;BME280;5176;42.622;25.386;2023-07-09T00:24:46;97406.59;;;20.63;94.77
9439;BME280;5176;42.622;25.386;2023-07-09T00:27:14;97409.28;;;20.63;95.49
9439;BME280;5176;42.622;25.386;2023-07-09T00:29:44;97410.44;;;20.61;96.13
9439;BME280;5176;42.622;25.386;2023-07-09T00:32:12;97409.59;;;20.60;95.87
9439;BME280;5176;42.622;25.386;2023-07-09T00:34:41;97416.59;;;20.61;95.66
9439;BME280;5176;42.622;25.386;2023-07-09T00:37:14;97420.25;;;20.60;96.01
9439;BME280;5176;42.622;25.386;2023-07-09T00:39:44;97417.38;;;20.54;94.77
9439;BME280;5176;42.622;25.386;2023-07-09T00:42:13;97410.13;;;20.46;95.63
9439;BME280;5176;42.622;25.386;2023-07-09T00:44:44;97416.75;;;20.42;96.19
9439;BME280;5176;42.622;25.386;2023-07-09T00:47:31;97419.56;;;20.40;96.75
9439;BME280;5176;42.622;25.386;2023-07-09T00:50:11;97424.19;;;20.38;95.34
9439;BME280;5176;42.622;25.386;2023-07-09T00:52:46;97425.72;;;20.41;96.01
9439;BME280;5176;42.622;25.386;2023-07-09T00:55:21;97422.38;;;20.39;95.42
9439;BME280;5176;42.622;25.386;2023-07-09T00:57:52;97419.88;;;20.37;95.08
9439;BME280;5176;42.622;25.386;2023-07-09T01:00:25;97424.97;;;20.31;96.10
9439;BME280;5176;42.622;25.386;2023-07-09T01:02:55;97433.56;;;20.25;96.98
9439;BME280;5176;42.622;25.386;2023-07-09T01:05:23;97434.56;;;20.24;97.13
9439;BME280;5176;42.622;25.386;2023-07-09T01:07:51;97428.41;;;20.23;97.08
9439;BME280;5176;42.622;25.386;2023-07-09T01:10:20;97428.03;;;20.18;96.86
9439;BME280;5176;42.622;25.386;2023-07-09T01:12:48;97431.16;;;20.13;95.71
9439;BME280;5176;42.622;25.386;2023-07-09T01:15:17;97434.13;;;20.10;96.31
9439;BME280;5176;42.622;25.386;2023-07-09T01:17:44;97445.59;;;20.11;96.31
9439;BME280;5176;42.622;25.386;2023-07-09T01:20:16;97435.78;;;20.11;96.93
9439;BME280;5176;42.622;25.386;2023-07-09T01:22:50;97444.59;;;20.12;97.03
9439;BME280;5176;42.622;25.386;2023-07-09T01:25:23;97441.25;;;20.10;97.42
9439;BME280;5176;42.622;25.386;2023-07-09T01:27:51;97437.09;;;20.07;98.55
9439;BME280;5176;42.622;25.386;2023-07-09T01:30:22;97440.19;;;20.03;98.47
9439;BME280;5176;42.622;25.386;2023-07-09T01:32:49;97439.22;;;20.04;98.54
9439;BME280;5176;42.622;25.386;2023-07-09T01:35:19;97440.19;;;20.03;98.78
9439;BME280;5176;42.622;25.386;2023-07-09T01:37:49;97443.47;;;19.97;98.44
9439;BME280;5176;42.622;25.386;2023-07-09T01:40:18;97448.78;;;19.97;98.54
9439;BME280;5176;42.622;25.386;2023-07-09T01:42:46;97447.72;;;19.90;98.85
9439;BME280;5176;42.622;25.386;2023-07-09T01:45:13;97446.66;;;19.82;99.36
9439;BME280;5176;42.622;25.386;2023-07-09T01:47:41;97447.50;;;19.83;99.56
9439;BME280;5176;42.622;25.386;2023-07-09T01:50:10;97447.25;;;19.76;100.00
9439;BME280;5176;42.622;25.386;2023-07-09T01:52:40;97452.41;;;19.78;99.83
9439;BME280;5176;42.622;25.386;2023-07-09T01:55:13;97458.56;;;19.78;99.50
9439;BME280;5176;42.622;25.386;2023-07-09T01:57:42;97457.06;;;19.76;99.25
9439;BME280;5176;42.622;25.386;2023-07-09T02:00:12;97432.81;;;19.61;100.00
9439;BME280;5176;42.622;25.386;2023-07-09T02:02:41;97459.72;;;19.76;99.84
9439;BME280;5176;42.622;25.386;2023-07-09T02:05:10;97451.91;;;19.74;99.44
9439;BME280;5176;42.622;25.386;2023-07-09T02:07:38;97457.50;;;19.71;99.44
9439;BME280;5176;42.622;25.386;2023-07-09T02:10:06;97454.59;;;19.65;98.22
9439;BME280;5176;42.622;25.386;2023-07-09T02:12:35;97460.63;;;19.67;98.45
9439;BME280;5176;42.622;25.386;2023-07-09T02:15:03;97464.88;;;19.59;98.48
9439;BME280;5176;42.622;25.386;2023-07-09T02:17:30;97462.34;;;19.58;98.03
9439;BME280;5176;42.622;25.386;2023-07-09T02:19:58;97467.09;;;19.54;97.72
9439;BME280;5176;42.622;25.386;2023-07-09T02:22:25;97470.88;;;19.52;98.15
9439;BME280;5176;42.622;25.386;2023-07-09T02:24:52;97467.44;;;19.42;99.11
9439;BME280;5176;42.622;25.386;2023-07-09T02:27:19;97475.16;;;19.35;99.95
9439;BME280;5176;42.622;25.386;2023-07-09T02:29:49;97470.13;;;19.32;99.86
9439;BME280;5176;42.622;25.386;2023-07-09T02:32:18;97472.94;;;19.30;100.00
9439;BME280;5176;42.622;25.386;2023-07-09T02:34:46;97466.25;;;19.26;100.00
9439;BME280;5176;42.622;25.386;2023-07-09T02:37:15;97478.72;;;19.26;100.00
9439;BME280;5176;42.622;25.386;2023-07-09T02:39:44;97473.53;;;19.24;100.00
9439;BME280;5176;42.622;25.386;2023-07-09T02:42:13;97478.72;;;19.26;100.00
9439;BME280;5176;42.622;25.386;2023-07-09T02:44:41;97479.66;;;19.25;99.84
9439;BME280;5176;42.622;25.386;2023-07-09T02:47:10;97482.31;;;19.25;99.85
9439;BME280;5176;42.622;25.386;2023-07-09T02:49:37;97484.97;;;19.25;99.53
9439;BME280;5176;42.622;25.386;2023-07-09T02:52:05;97483.31;;;19.24;99.43
9439;BME280;5176;42.622;25.386;2023-07-09T02:54:33;97490.59;;;19.22;99.74
9439;BME280;5176;42.622;25.386;2023-07-09T02:57:00;97493.94;;;19.24;100.00
9439;BME280;5176;42.622;25.386;2023-07-09T02:59:27;97488.63;;;19.24;99.39
9439;BME280;5176;42.622;25.386;2023-07-09T03:01:55;97493.09;;;19.23;98.85
9439;BME280;5176;42.622;25.386;2023-07-09T03:04:24;97491.28;;;19.24;98.64
9439;BME280;5176;42.622;25.386;2023-07-09T03:06:51;97492.28;;;19.23;98.42
9439;BME280;5176;42.622;25.386;2023-07-09T03:09:19;97494.09;;;19.22;98.33
9439;BME280;5176;42.622;25.386;2023-07-09T03:11:46;97496.91;;;19.21;98.90
9439;BME280;5176;42.622;25.386;2023-07-09T03:14:15;97499.84;;;19.18;99.01
9439;BME280;5176;42.622;25.386;2023-07-09T03:16:42;97496.50;;;19.16;100.00
9439;BME280;5176;42.622;25.386;2023-07-09T03:19:09;97491.50;;;19.13;100.00
9439;BME280;5176;42.622;25.386;2023-07-09T03:21:38;97496.25;;;19.09;100.00
9439;BME280;5176;42.622;25.386;2023-07-09T03:24:06;97491.34;;;19.04;100.00
9439;BME280;5176;42.622;25.386;2023-07-09T03:26:34;97507.28;;;19.04;100.00
9439;BME280;5176;42.622;25.386;2023-07-09T03:29:01;97502.97;;;19.03;100.00
9439;BME280;5176;42.622;25.386;2023-07-09T03:31:29;97503.94;;;19.02;100.00
9439;BME280;5176;42.622;25.386;2023-07-09T03:33:58;97501.44;;;19.01;100.00
9439;BME280;5176;42.622;25.386;2023-07-09T03:36:25;97515.00;;;18.98;100.00
9439;BME280;5176;42.622;25.386;2023-07-09T03:38:54;97514.00;;;18.99;100.00
9439;BME280;5176;42.622;25.386;2023-07-09T03:41:21;97514.00;;;18.99;100.00
9439;BME280;5176;42.622;25.386;2023-07-09T03:43:48;97511.25;;;19.00;100.00
9439;BME280;5176;42.622;25.386;2023-07-09T03:46:16;97510.94;;;19.03;100.00
9439;BME280;5176;42.622;25.386;2023-07-09T03:48:43;97516.09;;;19.05;100.00
9439;BME280;5176;42.622;25.386;2023-07-09T03:51:10;97511.63;;;19.05;100.00
9439;BME280;5176;42.622;25.386;2023-07-09T03:53:38;97511.50;;;19.07;100.00
9439;BME280;5176;42.622;25.386;2023-07-09T03:56:07;97510.50;;;19.08;100.00
9439;BME280;5176;42.622;25.386;2023-07-09T03:58:35;97517.19;;;19.12;100.00
9439;BME280;5176;42.622;25.386;2023-07-09T04:01:02;97511.59;;;19.15;100.00
9439;BME280;5176;42.622;25.386;2023-07-09T04:03:30;97515.50;;;19.21;100.00
9439;BME280;5176;42.622;25.386;2023-07-09T04:05:57;97509.88;;;19.24;100.00
9439;BME280;5176;42.622;25.386;2023-07-09T04:08:25;97513.78;;;19.29;100.00
9439;BME280;5176;42.622;25.386;2023-07-09T04:10:53;97511.69;;;19.33;100.00
9439;BME280;5176;42.622;25.386;2023-07-09T04:13:22;97510.56;;;19.36;100.00
9439;BME280;5176;42.622;25.386;2023-07-09T04:15:49;97503.00;;;19.41;100.00
9439;BME280;5176;42.622;25.386;2023-07-09T04:18:17;97505.19;;;19.45;100.00
9439;BME280;5176;42.622;25.386;2023-07-09T04:20:48;97509.06;;;19.51;100.00
9439;BME280;5176;42.622;25.386;2023-07-09T04:23:16;97501.38;;;19.57;100.00
9439;BME280;5176;42.622;25.386;2023-07-09T04:25:43;97508.63;;;19.65;98.77
9439;BME280;5176;42.622;25.386;2023-07-09T04:28:10;97515.88;;;19.73;97.92
9439;BME280;5176;42.622;25.386;2023-07-09T04:30:45;97509.66;;;19.82;95.32
9439;BME280;5176;42.622;25.386;2023-07-09T04:33:13;97501.09;;;19.88;96.01
9439;BME280;5176;42.622;25.386;2023-07-09T04:35:44;97514.31;;;19.98;95.13
9439;BME280;5176;42.622;25.386;2023-07-09T04:38:12;97512.72;;;20.05;95.11
9439;BME280;5176;42.622;25.386;2023-07-09T04:40:39;97517.28;;;20.12;91.98
9439;BME280;5176;42.622;25.386;2023-07-09T04:43:06;97517.25;;;20.22;91.34
9439;BME280;5176;42.622;25.386;2023-07-09T04:45:34;97519.31;;;20.28;91.26
9439;BME280;5176;42.622;25.386;2023-07-09T04:48:03;97518.38;;;20.37;87.75
9439;BME280;5176;42.622;25.386;2023-07-09T04:50:30;97518.34;;;20.47;87.29
9439;BME280;5176;42.622;25.386;2023-07-09T04:52:58;97520.91;;;20.57;85.04
9439;BME280;5176;42.622;25.386;2023-07-09T04:55:26;97518.31;;;20.65;85.73
9439;BME280;5176;42.622;25.386;2023-07-09T04:57:54;97517.41;;;20.74;85.13
9439;BME280;5176;42.622;25.386;2023-07-09T05:00:21;97517.84;;;20.87;85.34
9439;BME280;5176;42.622;25.386;2023-07-09T05:02:48;97517.56;;;20.99;83.54
9439;BME280;5176;42.622;25.386;2023-07-09T05:05:17;97518.16;;;21.10;83.24
9439;BME280;5176;42.622;25.386;2023-07-09T05:07:44;97524.22;;;21.20;77.88
9439;BME280;5176;42.622;25.386;2023-07-09T05:10:13;97524.28;;;21.29;77.79
9439;BME280;5176;42.622;25.386;2023-07-09T05:12:48;97528.50;;;21.39;77.81
9439;BME280;5176;42.622;25.386;2023-07-09T05:15:16;97529.41;;;21.48;76.03
9439;BME280;5176;42.622;25.386;2023-07-09T05:17:44;97519.44;;;21.58;76.65
9439;BME280;5176;42.622;25.386;2023-07-09T05:20:12;97524.78;;;21.66;73.83
9439;BME280;5176;42.622;25.386;2023-07-09T05:22:40;97511.31;;;21.68;71.68
9439;BME280;5176;42.622;25.386;2023-07-09T05:25:08;97526.53;;;21.84;72.63
9439;BME280;5176;42.622;25.386;2023-07-09T05:27:35;97519.72;;;21.89;73.62
9439;BME280;5176;42.622;25.386;2023-07-09T05:30:04;97525.25;;;21.96;72.33
9439;BME280;5176;42.622;25.386;2023-07-09T05:32:31;97520.59;;;22.06;72.90
9439;BME280;5176;42.622;25.386;2023-07-09T05:34:58;97521.16;;;22.10;72.51
9439;BME280;5176;42.622;25.386;2023-07-09T05:37:26;97522.00;;;22.18;72.77
9439;BME280;5176;42.622;25.386;2023-07-09T05:39:54;97528.22;;;22.27;70.58
9439;BME280;5176;42.622;25.386;2023-07-09T05:42:22;97526.56;;;22.34;70.34
9439;BME280;5176;42.622;25.386;2023-07-09T05:44:49;97516.19;;;22.39;70.68
9439;BME280;5176;42.622;25.386;2023-07-09T05:47:16;97519.03;;;22.46;69.83
9439;BME280;5176;42.622;25.386;2023-07-09T05:49:44;97520.22;;;22.60;68.29
9439;BME280;5176;42.622;25.386;2023-07-09T05:52:15;97525.88;;;22.73;67.75
9439;BME280;5176;42.622;25.386;2023-07-09T05:54:43;97529.25;;;22.83;66.18
9439;BME280;5176;42.622;25.386;2023-07-09T05:57:12;97537.94;;;22.93;63.82
9439;BME280;5176;42.622;25.386;2023-07-09T05:59:39;97538.94;;;23.00;65.15
9439;BME280;5176;42.622;25.386;2023-07-09T06:02:10;97537.94;;;23.09;64.70
9439;BME280;5176;42.622;25.386;2023-07-09T06:04:37;97528.22;;;23.17;63.44
9439;BME280;5176;42.622;25.386;2023-07-09T06:07:05;97523.38;;;23.28;60.97
9439;BME280;5176;42.622;25.386;2023-07-09T06:09:33;97528.19;;;23.33;59.46
9439;BME280;5176;42.622;25.386;2023-07-09T06:12:00;97523.16;;;23.38;60.23
9439;BME280;5176;42.622;25.386;2023-07-09T06:14:30;97530.31;;;23.46;60.18
9439;BME280;5176;42.622;25.386;2023-07-09T06:16:58;97522.28;;;23.54;58.52
9439;BME280;5176;42.622;25.386;2023-07-09T06:19:26;97518.78;;;23.61;56.04
9439;BME280;5176;42.622;25.386;2023-07-09T06:21:53;97521.25;;;23.71;55.93
9439;BME280;5176;42.622;25.386;2023-07-09T06:24:22;97524.06;;;23.78;55.62
9439;BME280;5176;42.622;25.386;2023-07-09T06:26:49;97521.72;;;23.83;55.98
9439;BME280;5176;42.622;25.386;2023-07-09T06:29:17;97519.47;;;23.95;56.31
9439;BME280;5176;42.622;25.386;2023-07-09T06:31:45;97523.13;;;24.02;54.54
9439;BME280;5176;42.622;25.386;2023-07-09T06:34:13;97528.13;;;24.05;53.11
9439;BME280;5176;42.622;25.386;2023-07-09T06:36:40;97530.28;;;24.09;53.13
9439;BME280;5176;42.622;25.386;2023-07-09T06:39:07;97530.59;;;24.14;52.50
9439;BME280;5176;42.622;25.386;2023-07-09T06:41:35;97538.44;;;24.16;52.83
9439;BME280;5176;42.622;25.386;2023-07-09T06:44:05;97533.22;;;24.23;53.40
9439;BME280;5176;42.622;25.386;2023-07-09T06:46:32;97525.31;;;24.29;54.86
9439;BME280;5176;42.622;25.386;2023-07-09T06:49:02;97524.56;;;24.43;54.70
9439;BME280;5176;42.622;25.386;2023-07-09T06:51:31;97523.84;;;24.50;51.21
9439;BME280;5176;42.622;25.386;2023-07-09T06:53:58;97525.81;;;24.56;51.01
9439;BME280;5176;42.622;25.386;2023-07-09T06:56:26;97513.38;;;24.63;51.87
9439;BME280;5176;42.622;25.386;2023-07-09T06:58:53;97517.66;;;24.72;51.85
9439;BME280;5176;42.622;25.386;2023-07-09T07:01:20;97525.09;;;24.85;50.60
9439;BME280;5176;42.622;25.386;2023-07-09T07:03:48;97528.50;;;24.93;49.02
9439;BME280;5176;42.622;25.386;2023-07-09T07:06:17;97521.41;;;25.00;50.98
9439;BME280;5176;42.622;25.386;2023-07-09T07:08:44;97517.50;;;25.11;51.04
9439;BME280;5176;42.622;25.386;2023-07-09T07:11:11;97518.81;;;25.15;50.63
9439;BME280;5176;42.622;25.386;2023-07-09T07:13:40;97510.88;;;25.22;49.36
9439;BME280;5176;42.622;25.386;2023-07-09T07:16:09;97513.44;;;25.30;49.13
9439;BME280;5176;42.622;25.386;2023-07-09T07:18:37;97517.69;;;25.39;49.95
9439;BME280;5176;42.622;25.386;2023-07-09T07:21:05;97512.91;;;25.49;48.31
9439;BME280;5176;42.622;25.386;2023-07-09T07:23:34;97523.75;;;25.56;48.66
9439;BME280;5176;42.622;25.386;2023-07-09T07:26:02;97515.59;;;25.64;49.16
9439;BME280;5176;42.622;25.386;2023-07-09T07:28:29;97514.31;;;25.75;49.22
9439;BME280;5176;42.622;25.386;2023-07-09T07:31:00;97522.38;;;25.75;50.05
9439;BME280;5176;42.622;25.386;2023-07-09T07:33:28;97525.78;;;25.84;48.47
9439;BME280;5176;42.622;25.386;2023-07-09T07:35:55;97514.28;;;25.90;48.94
9439;BME280;5176;42.622;25.386;2023-07-09T07:38:23;97512.13;;;26.00;49.28
9439;BME280;5176;42.622;25.386;2023-07-09T07:40:53;97511.66;;;26.11;49.80
9439;BME280;5176;42.622;25.386;2023-07-09T07:43:20;97518.84;;;26.25;48.19
9439;BME280;5176;42.622;25.386;2023-07-09T07:45:47;97521.41;;;26.33;47.01
9439;BME280;5176;42.622;25.386;2023-07-09T07:48:15;97520.47;;;26.41;46.02
9439;BME280;5176;42.622;25.386;2023-07-09T07:50:43;97514.78;;;26.51;46.22
9439;BME280;5176;42.622;25.386;2023-07-09T07:53:11;97501.72;;;26.48;45.06
9439;BME280;5176;42.622;25.386;2023-07-09T07:55:39;97516.53;;;26.58;46.16
9439;BME280;5176;42.622;25.386;2023-07-09T07:58:08;97518.03;;;26.68;45.76
9439;BME280;5176;42.622;25.386;2023-07-09T08:00:36;97513.19;;;26.78;45.26
9439;BME280;5176;42.622;25.386;2023-07-09T08:03:03;97510.56;;;26.84;44.59
9439;BME280;5176;42.622;25.386;2023-07-09T08:05:31;97515.72;;;26.86;44.67
9439;BME280;5176;42.622;25.386;2023-07-09T08:07:58;97509.31;;;26.87;42.88
9439;BME280;5176;42.622;25.386;2023-07-09T08:10:25;97506.94;;;26.99;43.52
9439;BME280;5176;42.622;25.386;2023-07-09T08:12:52;97497.97;;;27.13;44.87
9439;BME280;5176;42.622;25.386;2023-07-09T08:15:24;97500.38;;;27.29;44.45
9439;BME280;5176;42.622;25.386;2023-07-09T08:17:51;97493.38;;;27.41;44.70
9439;BME280;5176;42.622;25.386;2023-07-09T08:20:19;97489.75;;;27.56;44.48
9439;BME280;5176;42.622;25.386;2023-07-09T08:22:46;97493.09;;;27.64;44.04
9439;BME280;5176;42.622;25.386;2023-07-09T08:25:13;97496.69;;;27.72;41.07
9439;BME280;5176;42.622;25.386;2023-07-09T08:27:41;97487.19;;;27.76;44.04
9439;BME280;5176;42.622;25.386;2023-07-09T08:30:09;97489.09;;;27.88;43.33
9439;BME280;5176;42.622;25.386;2023-07-09T08:32:38;97490.00;;;28.02;42.32
9439;BME280;5176;42.622;25.386;2023-07-09T08:35:05;97486.47;;;28.15;43.95
9439;BME280;5176;42.622;25.386;2023-07-09T08:37:33;97488.78;;;28.11;42.03
9439;BME280;5176;42.622;25.386;2023-07-09T08:40:00;97476.75;;;28.14;41.92
9439;BME280;5176;42.622;25.386;2023-07-09T08:42:33;97488.78;;;28.18;38.58
9439;BME280;5176;42.622;25.386;2023-07-09T08:45:15;97482.38;;;28.19;40.52
9439;BME280;5176;42.622;25.386;2023-07-09T08:47:52;97481.53;;;28.25;40.72
9439;BME280;5176;42.622;25.386;2023-07-09T08:50:25;97485.75;;;28.34;40.42
9439;BME280;5176;42.622;25.386;2023-07-09T08:52:56;97477.66;;;28.41;40.42
9439;BME280;5176;42.622;25.386;2023-07-09T08:55:27;97481.84;;;28.50;38.70
9439;BME280;5176;42.622;25.386;2023-07-09T08:58:00;97483.72;;;28.56;39.85
9439;BME280;5176;42.622;25.386;2023-07-09T09:00:30;97482.69;;;28.57;39.59
9439;BME280;5176;42.622;25.386;2023-07-09T09:03:03;97484.97;;;28.67;39.17
9439;BME280;5176;42.622;25.386;2023-07-09T09:05:33;97477.91;;;28.66;38.89
9439;BME280;5176;42.622;25.386;2023-07-09T09:08:13;97475.00;;;28.81;39.83
9439;BME280;5176;42.622;25.386;2023-07-09T09:10:51;97483.34;;;28.99;38.19
9439;BME280;5176;42.622;25.386;2023-07-09T09:13:23;97483.34;;;29.06;38.70
9439;BME280;5176;42.622;25.386;2023-07-09T09:15:52;97476.50;;;29.03;38.22
9439;BME280;5176;42.622;25.386;2023-07-09T09:18:23;97487.28;;;29.10;38.19
9439;BME280;5176;42.622;25.386;2023-07-09T09:20:55;97487.91;;;29.12;38.76
9439;BME280;5176;42.622;25.386;2023-07-09T09:23:30;97483.53;;;29.11;38.15
9439;BME280;5176;42.622;25.386;2023-07-09T09:26:14;97478.97;;;29.18;39.39
9439;BME280;5176;42.622;25.386;2023-07-09T09:28:43;97479.34;;;29.28;39.24
9439;BME280;5176;42.622;25.386;2023-07-09T09:31:10;97482.22;;;29.40;38.48
9439;BME280;5176;42.622;25.386;2023-07-09T09:33:42;97477.47;;;29.28;37.56
9439;BME280;5176;42.622;25.386;2023-07-09T09:36:16;97479.34;;;29.28;36.55
9439;BME280;5176;42.622;25.386;2023-07-09T09:38:44;97485.16;;;29.38;36.35
9439;BME280;5176;42.622;25.386;2023-07-09T09:41:15;97484.53;;;29.43;38.29
9439;BME280;5176;42.622;25.386;2023-07-09T09:43:45;97486.78;;;29.59;38.92
9439;BME280;5176;42.622;25.386;2023-07-09T09:46:18;97488.88;;;29.64;39.61
9439;BME280;5176;42.622;25.386;2023-07-09T09:48:48;97494.66;;;29.61;34.90
9439;BME280;5176;42.622;25.386;2023-07-09T09:51:17;97490.34;;;29.53;36.52
9439;BME280;5176;42.622;25.386;2023-07-09T09:53:48;97483.88;;;29.47;36.39
9439;BME280;5176;42.622;25.386;2023-07-09T09:56:18;97488.69;;;29.52;36.08
9439;BME280;5176;42.622;25.386;2023-07-09T09:58:46;97498.84;;;29.50;36.67
9439;BME280;5176;42.622;25.386;2023-07-09T10:01:18;97497.16;;;29.55;36.26
9439;BME280;5176;42.622;25.386;2023-07-09T10:03:51;97498.41;;;29.66;37.38
9439;BME280;5176;42.622;25.386;2023-07-09T10:06:33;97490.72;;;29.70;35.24
9439;BME280;5176;42.622;25.386;2023-07-09T10:09:08;97486.53;;;29.74;36.19
9439;BME280;5176;42.622;25.386;2023-07-09T10:11:45;97490.41;;;29.91;37.56
9439;BME280;5176;42.622;25.386;2023-07-09T10:14:25;97487.47;;;29.99;37.81
9439;BME280;5176;42.622;25.386;2023-07-09T10:17:00;97484.78;;;29.93;35.84
9439;BME280;5176;42.622;25.386;2023-07-09T10:19:37;97486.09;;;29.83;35.85
9439;BME280;5176;42.622;25.386;2023-07-09T10:22:07;97475.88;;;29.85;36.26
9439;BME280;5176;42.622;25.386;2023-07-09T10:24:44;97480.25;;;29.87;37.03
9439;BME280;5176;42.622;25.386;2023-07-09T10:27:19;97487.69;;;29.98;36.61
9439;BME280;5176;42.622;25.386;2023-07-09T10:29:58;97488.75;;;29.90;36.34
9439;BME280;5176;42.622;25.386;2023-07-09T10:32:40;97486.63;;;29.99;37.78
9439;BME280;5176;42.622;25.386;2023-07-09T10:35:16;97485.38;;;30.01;37.40
9439;BME280;5176;42.622;25.386;2023-07-09T10:37:54;97483.09;;;29.98;37.18
9439;BME280;5176;42.622;25.386;2023-07-09T10:40:33;97474.53;;;30.08;37.18
9439;BME280;5176;42.622;25.386;2023-07-09T10:43:03;97473.69;;;30.14;36.57
9439;BME280;5176;42.622;25.386;2023-07-09T10:45:36;97487.66;;;30.04;36.98
9439;BME280;5176;42.622;25.386;2023-07-09T10:48:12;97474.75;;;30.13;34.90
9439;BME280;5176;42.622;25.386;2023-07-09T10:50:45;97470.16;;;30.14;34.81
9439;BME280;5176;42.622;25.386;2023-07-09T10:53:26;97444.19;;;30.06;35.42
9439;BME280;5176;42.622;25.386;2023-07-09T10:55:59;97469.91;;;30.22;35.76
9439;BME280;5176;42.622;25.386;2023-07-09T10:58:33;97465.81;;;30.13;34.51
9439;BME280;5176;42.622;25.386;2023-07-09T11:01:02;97466.03;;;30.11;35.29
9439;BME280;5176;42.622;25.386;2023-07-09T11:03:38;97453.72;;;30.15;35.79
9439;BME280;5176;42.622;25.386;2023-07-09T11:06:18;97461.63;;;30.17;35.11
9439;BME280;5176;42.622;25.386;2023-07-09T11:08:51;97459.13;;;30.08;36.12
9439;BME280;5176;42.622;25.386;2023-07-09T11:11:28;97459.13;;;30.08;37.05
9439;BME280;5176;42.622;25.386;2023-07-09T11:14:00;97452.28;;;30.06;35.97
9439;BME280;5176;42.622;25.386;2023-07-09T11:16:35;97471.59;;;30.23;36.56
9439;BME280;5176;42.622;25.386;2023-07-09T11:19:05;97470.09;;;30.27;36.33
9439;BME280;5176;42.622;25.386;2023-07-09T11:21:44;97461.00;;;30.15;36.92
9439;BME280;5176;42.622;25.386;2023-07-09T11:24:30;97463.06;;;30.19;36.07
9439;BME280;5176;42.622;25.386;2023-07-09T11:26:57;97464.94;;;30.19;36.09
9439;BME280;5176;42.622;25.386;2023-07-09T11:29:27;97473.47;;;30.09;36.23
9439;BME280;5176;42.622;25.386;2023-07-09T11:32:06;97464.38;;;30.10;37.23
9439;BME280;5176;42.622;25.386;2023-07-09T11:34:45;97441.97;;;29.96;37.35
9439;BME280;5176;42.622;25.386;2023-07-09T11:37:15;97470.41;;;29.99;35.81
9439;BME280;5176;42.622;25.386;2023-07-09T11:39:45;97455.25;;;29.98;38.01
9439;BME280;5176;42.622;25.386;2023-07-09T11:42:27;97451.31;;;29.94;38.35
9439;BME280;5176;42.622;25.386;2023-07-09T11:45:02;97449.00;;;30.04;38.41
9439;BME280;5176;42.622;25.386;2023-07-09T11:47:32;97454.59;;;30.02;36.89
9439;BME280;5176;42.622;25.386;2023-07-09T11:50:04;97448.97;;;30.10;37.20
9439;BME280;5176;42.622;25.386;2023-07-09T11:52:37;97465.34;;;30.16;38.00
9439;BME280;5176;42.622;25.386;2023-07-09T11:55:21;97448.31;;;30.15;37.42
9439;BME280;5176;42.622;25.386;2023-07-09T11:57:53;97443.34;;;30.12;37.59
9439;BME280;5176;42.622;25.386;2023-07-09T12:00:21;97448.53;;;30.14;37.65
9439;BME280;5176;42.622;25.386;2023-07-09T12:02:48;97447.91;;;30.18;36.87
9439;BME280;5176;42.622;25.386;2023-07-09T12:05:21;97436.28;;;30.04;35.53
9439;BME280;5176;42.622;25.386;2023-07-09T12:07:50;97427.59;;;29.96;36.77
9439;BME280;5176;42.622;25.386;2023-07-09T12:10:21;97423.25;;;29.95;37.05
9439;BME280;5176;42.622;25.386;2023-07-09T12:12:53;97432.16;;;29.95;36.96
9439;BME280;5176;42.622;25.386;2023-07-09T12:15:23;97423.19;;;30.01;37.02
9439;BME280;5176;42.622;25.386;2023-07-09T12:17:59;97421.72;;;30.05;37.79
9439;BME280;5176;42.622;25.386;2023-07-09T12:20:29;97420.28;;;30.09;37.65
9439;BME280;5176;42.622;25.386;2023-07-09T12:22:59;97418.19;;;30.05;36.92
9439;BME280;5176;42.622;25.386;2023-07-09T12:25:29;97419.44;;;30.02;36.58
9439;BME280;5176;42.622;25.386;2023-07-09T12:27:58;97423.88;;;29.97;36.69
9439;BME280;5176;42.622;25.386;2023-07-09T12:30:26;97426.13;;;30.00;37.44
9439;BME280;5176;42.622;25.386;2023-07-09T12:32:53;97426.31;;;30.05;37.00
9439;BME280;5176;42.622;25.386;2023-07-09T12:35:20;97409.66;;;30.08;37.52
9439;BME280;5176;42.622;25.386;2023-07-09T12:37:48;97422.56;;;30.06;36.19
9439;BME280;5176;42.622;25.386;2023-07-09T12:40:22;97425.91;;;30.01;36.95
9439;BME280;5176;42.622;25.386;2023-07-09T12:42:50;97416.00;;;29.89;37.28
9439;BME280;5176;42.622;25.386;2023-07-09T12:45:19;97413.59;;;29.74;36.63
9439;BME280;5176;42.622;25.386;2023-07-09T12:47:48;97415.22;;;29.75;35.95
9439;BME280;5176;42.622;25.386;2023-07-09T12:50:21;97411.41;;;29.89;36.63
9439;BME280;5176;42.622;25.386;2023-07-09T12:52:49;97410.56;;;29.95;36.98
9439;BME280;5176;42.622;25.386;2023-07-09T12:55:22;97400.59;;;29.89;37.17
9439;BME280;5176;42.622;25.386;2023-07-09T12:57:49;97402.47;;;29.89;37.83
9439;BME280;5176;42.622;25.386;2023-07-09T13:00:17;97400.41;;;29.91;37.96
9439;BME280;5176;42.622;25.386;2023-07-09T13:02:45;97400.75;;;30.01;37.22
9439;BME280;5176;42.622;25.386;2023-07-09T13:05:20;97402.63;;;30.00;37.49
9439;BME280;5176;42.622;25.386;2023-07-09T13:07:51;97400.53;;;30.02;37.64
9439;BME280;5176;42.622;25.386;2023-07-09T13:10:25;97385.03;;;29.91;36.49
9439;BME280;5176;42.622;25.386;2023-07-09T13:12:55;97389.22;;;29.80;36.41
9439;BME280;5176;42.622;25.386;2023-07-09T13:15:28;97392.00;;;29.67;37.94
9439;BME280;5176;42.622;25.386;2023-07-09T13:18:01;97399.03;;;29.75;38.22
9439;BME280;5176;42.622;25.386;2023-07-09T13:20:31;97397.59;;;29.72;37.21
9439;BME280;5176;42.622;25.386;2023-07-09T13:22:59;97398.63;;;29.71;38.84
9439;BME280;5176;42.622;25.386;2023-07-09T13:25:27;97396.16;;;29.70;39.16